createdAt,value
2022-09-12T00:04:32.650Z,0
2022-09-12T00:09:32.683Z,0
2022-09-12T00:14:32.661Z,0
2022-09-12T00:25:10.923Z,0
2022-09-12T00:34:33.705Z,0
2022-09-12T00:39:32.847Z,0
2022-09-12T00:44:32.773Z,0
2022-09-12T00:49:32.739Z,0
2022-09-12T00:54:32.722Z,0
2022-09-12T00:59:33.209Z,0
2022-09-12T01:04:32.830Z,0
2022-09-12T01:09:32.747Z,0
2022-09-12T01:14:32.733Z,0
2022-09-12T01:19:32.682Z,0
2022-09-12T01:24:32.646Z,0
2022-09-12T01:29:32.694Z,0
2022-09-12T01:34:32.690Z,0
2022-09-12T01:39:32.723Z,0
2022-09-12T01:44:32.689Z,0
2022-09-12T01:49:32.659Z,0
2022-09-12T01:54:32.740Z,0
2022-09-12T01:59:32.665Z,0
2022-09-12T02:04:34.342Z,0
2022-09-12T02:09:32.702Z,0
2022-09-12T02:14:32.731Z,0
2022-09-12T02:19:32.723Z,0
2022-09-12T02:24:33.030Z,0
2022-09-12T02:29:32.712Z,0
2022-09-12T02:34:32.705Z,0
2022-09-12T02:39:32.686Z,0
2022-09-12T02:44:32.673Z,0
2022-09-12T02:49:32.695Z,0
2022-09-12T02:54:32.801Z,0
2022-09-12T02:59:32.729Z,0
2022-09-12T03:04:32.768Z,0
2022-09-12T03:09:32.730Z,0
2022-09-12T03:14:33.973Z,0
2022-09-12T03:19:32.724Z,0
2022-09-12T03:24:32.718Z,0
2022-09-12T03:29:32.671Z,0
2022-09-12T03:34:32.732Z,0
2022-09-12T03:39:32.716Z,0
2022-09-12T03:44:32.752Z,0
2022-09-12T03:49:32.847Z,0
2022-09-12T03:54:32.715Z,0
2022-09-12T03:59:33.431Z,0
2022-09-12T04:04:32.718Z,0
2022-09-12T04:09:32.728Z,0
2022-09-12T04:14:32.737Z,0
2022-09-12T04:19:32.701Z,0
2022-09-12T04:24:32.719Z,0
2022-09-12T04:29:32.724Z,256
2022-09-12T04:34:32.771Z,0
2022-09-12T04:39:32.766Z,259
2022-09-12T04:44:32.748Z,261
2022-09-12T04:49:32.783Z,267
2022-09-12T04:54:32.756Z,274
2022-09-12T04:59:32.722Z,283
2022-09-12T05:04:32.736Z,293
2022-09-12T05:09:32.715Z,304
2022-09-12T05:14:32.762Z,318
2022-09-12T05:19:32.768Z,337
2022-09-12T05:24:32.758Z,354
2022-09-12T05:29:32.806Z,357
2022-09-12T05:34:32.730Z,367
2022-09-12T05:39:32.759Z,377
2022-09-12T05:44:32.777Z,389
2022-09-12T05:49:32.746Z,405
2022-09-12T05:54:32.755Z,420
2022-09-12T05:59:32.734Z,490
2022-09-12T06:04:32.812Z,485
2022-09-12T06:09:32.773Z,458
2022-09-12T06:14:32.744Z,563
2022-09-12T06:19:32.779Z,595
2022-09-12T06:24:32.752Z,519
2022-09-12T06:29:32.791Z,513
2022-09-12T06:34:32.777Z,516
2022-09-12T06:39:32.789Z,524
2022-09-12T06:44:32.856Z,533
2022-09-12T06:49:32.730Z,551
2022-09-12T06:54:32.779Z,577
2022-09-12T06:59:32.804Z,594
2022-09-12T07:04:32.829Z,607
2022-09-12T07:09:32.799Z,636
2022-09-12T07:14:32.781Z,673
2022-09-12T07:30:03.673Z,808
2022-09-12T07:35:03.703Z,854
2022-09-12T07:45:03.742Z,999
2022-09-12T07:50:03.654Z,1065
2022-09-12T07:55:03.657Z,1122
2022-09-12T08:00:03.725Z,1170
2022-09-12T08:05:03.650Z,1361
2022-09-12T08:10:03.673Z,2314
2022-09-12T08:15:03.626Z,13668
2022-09-12T08:20:03.693Z,15230
2022-09-12T08:25:05.696Z,14356
2022-09-12T08:30:03.721Z,15918
2022-09-12T08:35:03.782Z,14828
2022-09-12T08:40:03.767Z,15341
2022-09-12T08:45:03.714Z,15032
2022-09-12T08:50:03.719Z,14829
2022-09-12T08:55:03.655Z,16244
2022-09-12T09:00:03.641Z,14757
2022-09-12T09:05:03.876Z,15066
2022-09-12T09:10:03.646Z,15523
2022-09-12T09:15:05.338Z,15769
2022-09-12T09:20:03.722Z,14068
2022-09-12T09:25:03.742Z,15121
2022-09-12T09:30:03.677Z,15125
2022-09-12T09:35:03.664Z,14433
2022-09-12T09:40:03.744Z,2533
2022-09-12T09:45:03.646Z,1558
2022-09-12T09:50:04.147Z,15076
2022-09-12T09:55:03.687Z,1751
2022-09-12T10:00:03.727Z,5196
2022-09-12T10:05:03.677Z,1285
2022-09-12T10:10:03.661Z,1241
2022-09-12T10:15:03.699Z,5033
2022-09-12T10:20:20.774Z,11295
2022-09-12T10:25:03.766Z,1843
2022-09-12T10:30:03.674Z,3184
2022-09-12T10:35:03.669Z,3931
2022-09-12T10:40:03.760Z,1685
2022-09-12T10:45:03.706Z,6869
2022-09-12T10:50:03.689Z,5387
2022-09-12T10:55:03.940Z,1981
2022-09-12T11:00:03.706Z,2880
2022-09-12T11:05:03.689Z,10190
2022-09-12T11:10:03.717Z,9422
2022-09-12T11:15:04.143Z,1245
2022-09-12T11:20:03.668Z,1144
2022-09-12T11:25:04.309Z,1450
2022-09-12T11:30:03.735Z,1449
2022-09-12T11:35:03.758Z,1349
2022-09-12T11:40:03.755Z,1482
2022-09-12T11:45:03.682Z,1519
2022-09-12T11:50:03.714Z,1568
2022-09-12T11:55:03.724Z,1429
2022-09-12T12:00:04.233Z,1449
2022-09-12T12:05:04.142Z,1216
2022-09-12T12:10:03.769Z,1256
2022-09-12T12:15:03.779Z,1299
2022-09-12T12:20:06.667Z,1404
2022-09-12T12:25:03.804Z,1346
2022-09-12T12:30:03.706Z,1250
2022-09-12T12:35:03.696Z,1180
2022-09-12T12:40:03.754Z,1156
2022-09-12T12:45:03.728Z,1166
2022-09-12T12:50:03.729Z,1172
2022-09-12T12:55:04.432Z,1194
2022-09-12T13:00:03.784Z,1249
2022-09-12T13:05:03.725Z,1251
2022-09-12T13:10:04.059Z,1290
2022-09-12T13:15:03.718Z,1198
2022-09-12T13:20:26.497Z,1136
2022-09-12T13:25:04.021Z,1079
2022-09-12T13:30:03.764Z,1017
2022-09-12T13:35:03.759Z,980
2022-09-12T13:40:03.769Z,1004
2022-09-12T13:45:04.960Z,949
2022-09-12T13:50:03.787Z,964
2022-09-12T13:55:05.194Z,1000
2022-09-12T14:00:04.297Z,988
2022-09-12T14:05:03.765Z,942
2022-09-12T14:10:03.778Z,899
2022-09-12T14:15:03.814Z,885
2022-09-12T14:20:04.162Z,961
2022-09-12T14:25:03.824Z,1020
2022-09-12T14:30:03.859Z,942
2022-09-12T14:35:03.740Z,1004
2022-09-12T14:40:03.911Z,958
2022-09-12T14:45:03.817Z,837
2022-09-12T14:50:05.449Z,816
2022-09-12T14:55:03.788Z,913
2022-09-12T15:00:03.802Z,963
2022-09-12T15:05:03.845Z,987
2022-09-12T15:10:03.796Z,928
2022-09-12T15:15:03.750Z,974
2022-09-12T15:20:04.061Z,947
2022-09-12T15:25:03.899Z,775
2022-09-12T15:30:04.333Z,649
2022-09-12T15:35:04.778Z,592
2022-09-12T15:40:03.828Z,634
2022-09-12T15:45:03.813Z,663
2022-09-12T15:50:03.805Z,541
2022-09-12T15:55:03.791Z,461
2022-09-12T16:00:03.779Z,418
2022-09-12T16:05:03.907Z,389
2022-09-12T16:10:03.798Z,377
2022-09-12T16:15:03.777Z,433
2022-09-12T16:20:03.821Z,460
2022-09-12T16:25:03.826Z,483
2022-09-12T16:30:03.804Z,373
2022-09-12T16:35:03.795Z,324
2022-09-12T16:40:03.869Z,318
2022-09-12T16:45:04.545Z,319
2022-09-12T16:50:03.825Z,335
2022-09-12T16:55:03.794Z,318
2022-09-12T17:00:03.806Z,303
2022-09-12T17:05:03.792Z,296
2022-09-12T17:10:03.830Z,287
2022-09-12T17:15:03.851Z,285
2022-09-12T17:20:03.827Z,281
2022-09-12T17:25:04.123Z,272
2022-09-12T17:30:03.819Z,267
2022-09-12T17:35:03.804Z,263
2022-09-12T17:40:04.068Z,259
2022-09-12T17:45:03.811Z,0
2022-09-12T17:50:30.187Z,0
2022-09-12T17:55:04.080Z,0
2022-09-12T18:00:03.925Z,0
2022-09-12T18:05:03.878Z,0
2022-09-12T18:10:03.856Z,0
2022-09-12T18:15:05.637Z,0
2022-09-12T18:20:03.830Z,0
2022-09-12T18:25:03.887Z,0
2022-09-12T18:30:20.375Z,0
2022-09-12T18:35:03.832Z,0
2022-09-12T18:40:04.256Z,0
2022-09-12T18:50:03.851Z,0
2022-09-12T18:55:03.839Z,0
2022-09-12T19:00:03.882Z,0
2022-09-12T19:05:04.109Z,0
2022-09-12T19:10:03.871Z,0
2022-09-12T19:15:03.844Z,0
2022-09-12T19:20:03.883Z,0
2022-09-12T19:30:03.969Z,0
2022-09-12T19:35:03.926Z,0
2022-09-12T19:40:05.009Z,0
2022-09-12T19:45:04.992Z,0
2022-09-12T19:50:04.950Z,0
2022-09-12T19:55:04.990Z,0
2022-09-12T20:00:04.961Z,0
2022-09-12T20:05:04.963Z,0
2022-09-12T20:10:04.945Z,0
2022-09-12T20:15:04.987Z,0
2022-09-12T20:20:04.939Z,0
2022-09-12T20:25:05.129Z,0
2022-09-12T20:30:04.960Z,0
2022-09-12T20:35:04.936Z,0
2022-09-12T20:40:05.551Z,0
2022-09-12T20:45:05.029Z,0
2022-09-12T20:50:04.948Z,0
2022-09-12T20:55:04.922Z,0
2022-09-12T21:00:04.961Z,0
2022-09-12T21:05:05.003Z,0
2022-09-12T21:10:04.938Z,0
2022-09-12T21:15:04.978Z,0
2022-09-12T21:20:08.014Z,0
2022-09-12T21:25:05.273Z,0
2022-09-12T21:30:05.428Z,0
2022-09-12T21:35:05.165Z,0
2022-09-12T21:40:04.954Z,0
2022-09-12T21:45:04.921Z,0
2022-09-12T21:50:04.942Z,0
2022-09-12T21:55:04.948Z,0
2022-09-12T22:00:04.965Z,0
2022-09-12T22:05:04.972Z,0
2022-09-12T22:10:04.982Z,0
2022-09-12T22:15:23.252Z,0
2022-09-12T22:20:04.954Z,0
2022-09-12T22:25:04.946Z,0
2022-09-12T22:30:04.968Z,0
2022-09-12T22:35:05.052Z,0
2022-09-12T22:40:04.981Z,0
2022-09-12T22:45:04.940Z,0
2022-09-12T22:50:04.971Z,0
2022-09-12T22:55:04.965Z,0
2022-09-12T23:00:04.943Z,0
2022-09-12T23:05:04.972Z,0
2022-09-12T23:10:04.963Z,0
2022-09-12T23:15:05.083Z,0
2022-09-12T23:20:04.920Z,0
2022-09-12T23:25:05.314Z,0
2022-09-12T23:30:05.269Z,0
2022-09-12T23:35:04.935Z,0
2022-09-12T23:40:04.958Z,0
2022-09-12T23:45:04.957Z,0
2022-09-12T23:50:04.968Z,0
2022-09-12T23:55:04.932Z,0
